Terminal Aerodrome Forecast
Issued by NWS

Home | Current Version | Previous Version | Graphics & Text | Print | Product List | Glossary Off
Versions: 1 2 3 4 5 6 7 8 9 10 11 12 13 14 15 16 17 18 19 20 21 22

000
FTUS43 KBIS 282340
TAFMOT
TAF
KMOT 282340Z 2900/2924 32025G33KT P6SM SCT080 BKN100
     FM290300 32012G20KT P6SM SCT080
     FM290400 32010KT P6SM SCT070
     FM290700 31010KT P6SM BKN060
     FM291200 30019G29KT P6SM OVC035=

USA.gov is the U.S. government's official web portal to all federal, state and local government web resources and services.